Time;durP1;ratioP1;P1;durP2;ratioP2;P2;SDS_P1;SDS_P2;PMS_P1;PMS_P2;Temp;Humidity;BMP_temperature;BMP_pressure;BME280_temperature;BME280_humidity;BME280_pressure;Samples;Min_cycle;Max_cycle;Signal;HPM_P1;HPM_P2
2022/03/10 00:00:49;;;;;;;17.43;10.50;;;7.20;38.70;;;;;;5085969;28;20480;-85
2022/03/10 00:03:17;;;;;;;16.00;9.00;;;7.20;38.50;;;;;;5088486;28;20454;-84
2022/03/10 00:05:44;;;;;;;20.30;9.83;;;6.90;38.60;;;;;;5055499;28;20778;-83
2022/03/10 00:08:11;;;;;;;18.03;9.13;;;6.40;39.30;;;;;;5084543;28;20989;-83
2022/03/10 00:10:38;;;;;;;21.07;11.33;;;5.80;40.80;;;;;;5083859;28;20484;-84
2022/03/10 00:13:06;;;;;;;26.87;10.60;;;5.80;41.20;;;;;;5103524;28;20920;-84
2022/03/10 00:15:33;;;;;;;17.33;10.07;;;6.10;41.20;;;;;;5071226;28;20710;-85
2022/03/10 00:18:02;;;;;;;22.70;9.50;;;6.30;40.50;;;;;;5086587;28;20440;-84
2022/03/10 00:20:29;;;;;;;16.53;9.43;;;6.50;40.00;;;;;;5079288;28;20448;-85
2022/03/10 00:22:57;;;;;;;14.07;9.20;;;6.60;39.80;;;;;;5077675;28;21347;-85
2022/03/10 00:25:23;;;;;;;18.43;8.90;;;6.70;39.70;;;;;;5085448;28;21209;-83
2022/03/10 00:27:51;;;;;;;14.40;8.80;;;6.70;39.50;;;;;;5089756;28;20466;-84
2022/03/10 00:30:20;;;;;;;17.73;10.30;;;6.80;39.60;;;;;;5089828;28;20448;-84
2022/03/10 00:32:49;;;;;;;16.13;8.90;;;6.80;39.60;;;;;;5086612;28;20570;-85
2022/03/10 00:35:18;;;;;;;15.83;9.97;;;6.80;39.60;;;;;;5076867;28;20731;-84
2022/03/10 00:37:46;;;;;;;15.30;8.23;;;6.80;39.90;;;;;;5078669;28;20537;-84
2022/03/10 00:40:14;;;;;;;14.17;8.60;;;6.80;39.80;;;;;;5086907;28;20462;-84
2022/03/10 00:42:42;;;;;;;15.03;9.23;;;6.80;39.60;;;;;;5090218;28;20475;-84
2022/03/10 00:45:10;;;;;;;16.87;8.43;;;6.80;39.60;;;;;;5074181;28;20451;-84
2022/03/10 00:47:38;;;;;;;13.17;8.40;;;6.90;39.40;;;;;;5071146;28;20502;-85
2022/03/10 00:50:07;;;;;;;16.40;9.00;;;6.90;39.40;;;;;;5087666;28;20450;-84
2022/03/10 00:52:40;;;;;;;14.97;8.77;;;6.80;39.20;;;;;;5085641;28;20478;-84
2022/03/10 00:55:08;;;;;;;12.67;8.70;;;6.70;39.30;;;;;;5085043;28;20455;-84
2022/03/10 00:57:35;;;;;;;11.67;8.30;;;6.70;39.40;;;;;;5094542;28;20463;-84
2022/03/10 01:00:02;;;;;;;18.77;10.10;;;6.70;39.70;;;;;;5086682;28;20511;-84
2022/03/10 01:02:31;;;;;;;14.47;8.93;;;6.70;40.50;;;;;;5085350;28;20486;-85
2022/03/10 01:04:59;;;;;;;15.27;9.13;;;6.70;40.40;;;;;;5089699;28;20463;-84
2022/03/10 01:07:26;;;;;;;15.13;8.17;;;6.60;39.80;;;;;;5088074;28;20488;-84
2022/03/10 01:09:53;;;;;;;17.33;9.27;;;6.60;40.30;;;;;;5087584;28;20455;-83
2022/03/10 01:12:20;;;;;;;13.83;8.30;;;6.50;40.60;;;;;;5075758;28;20473;-86
2022/03/10 01:14:47;;;;;;;15.40;8.53;;;6.50;40.30;;;;;;5075103;28;20450;-85
2022/03/10 01:17:14;;;;;;;19.20;9.00;;;6.50;40.20;;;;;;5073898;28;20450;-83
2022/03/10 01:19:41;;;;;;;17.40;8.93;;;6.30;40.80;;;;;;5073788;28;20852;-84
2022/03/10 01:22:09;;;;;;;18.23;10.07;;;6.30;40.70;;;;;;5090243;28;20478;-85
2022/03/10 01:24:36;;;;;;;17.10;8.10;;;6.20;41.10;;;;;;5074344;28;20525;-85
2022/03/10 01:27:04;;;;;;;16.47;8.50;;;6.20;40.90;;;;;;5091511;28;20493;-86
2022/03/10 01:29:30;;;;;;;16.80;8.10;;;6.20;40.70;;;;;;5090591;28;20463;-85
2022/03/10 01:31:57;;;;;;;16.23;8.10;;;6.20;40.90;;;;;;5075146;28;20990;-86
2022/03/10 01:34:24;;;;;;;18.70;9.00;;;6.20;40.90;;;;;;5093273;28;20649;-86
2022/03/10 01:36:51;;;;;;;22.13;8.43;;;6.20;40.60;;;;;;5089056;28;20448;-85
2022/03/10 01:39:20;;;;;;;16.90;7.60;;;6.10;40.60;;;;;;5080421;28;20528;-85
2022/03/10 01:41:46;;;;;;;14.03;8.17;;;5.50;41.40;;;;;;5075305;28;21026;-84
2022/03/10 01:44:14;;;;;;;18.73;9.10;;;5.30;42.10;;;;;;5089173;28;20903;-84
2022/03/10 01:46:40;;;;;;;18.10;9.83;;;5.20;42.00;;;;;;5086745;28;20475;-85
2022/03/10 01:49:08;;;;;;;16.40;9.80;;;5.30;41.90;;;;;;5088365;28;20467;-85
2022/03/10 01:51:35;;;;;;;15.57;8.73;;;5.50;41.60;;;;;;5089232;28;20471;-85
2022/03/10 01:54:03;;;;;;;14.60;9.20;;;5.60;41.60;;;;;;5088634;28;20976;-86
2022/03/10 01:56:32;;;;;;;14.67;8.13;;;5.60;41.60;;;;;;5090172;28;20489;-86
2022/03/10 01:59:02;;;;;;;17.10;9.33;;;5.80;41.60;;;;;;5089471;28;20538;-86
2022/03/10 02:01:29;;;;;;;16.93;9.77;;;5.80;41.40;;;;;;5079738;28;20540;-85
2022/03/10 02:03:57;;;;;;;21.63;11.77;;;5.80;41.40;;;;;;5088682;28;20447;-85
2022/03/10 02:06:24;;;;;;;20.90;9.33;;;5.70;41.60;;;;;;5079319;28;20551;-85
2022/03/10 02:11:39;;;;;;;15.57;8.90;;;5.00;43.10;;;;;;5073780;28;20519;-86
2022/03/10 02:19:31;;;;;;;18.53;8.87;;;5.20;42.90;;;;;;5090622;28;20555;-86
2022/03/10 02:21:58;;;;;;;17.07;8.70;;;5.30;42.70;;;;;;5089292;28;20847;-86
2022/03/10 02:24:26;;;;;;;13.47;8.17;;;5.50;42.00;;;;;;5088946;28;20806;-86
2022/03/10 02:26:53;;;;;;;15.00;9.10;;;5.60;41.90;;;;;;5089255;28;20692;-86
2022/03/10 02:29:20;;;;;;;22.40;11.57;;;5.60;41.40;;;;;;5090871;28;20473;-86
2022/03/10 02:31:47;;;;;;;17.60;8.60;;;5.60;41.20;;;;;;5074327;28;21029;-87
2022/03/10 02:34:14;;;;;;;16.17;9.43;;;5.60;41.20;;;;;;5090065;28;20539;-86
2022/03/10 02:36:41;;;;;;;18.73;8.07;;;5.70;41.20;;;;;;5090411;28;20473;-87
2022/03/10 02:39:08;;;;;;;16.50;8.13;;;5.60;41.20;;;;;;5089263;28;20459;-85
2022/03/10 02:41:36;;;;;;;14.60;8.10;;;5.60;41.40;;;;;;5073920;28;20497;-86
2022/03/10 02:44:03;;;;;;;19.37;9.37;;;5.60;41.70;;;;;;5090905;28;20485;-83
2022/03/10 02:46:30;;;;;;;14.23;8.53;;;5.60;41.40;;;;;;5099454;28;20503;-87
2022/03/10 02:48:57;;;;;;;13.07;9.20;;;5.60;41.00;;;;;;5075429;28;20460;-87
2022/03/10 02:51:24;;;;;;;16.10;8.40;;;5.60;41.20;;;;;;5077217;28;20837;-87
2022/03/10 02:53:51;;;;;;;13.43;8.60;;;5.50;41.10;;;;;;5090085;28;20456;-87
2022/03/10 02:56:18;;;;;;;10.97;7.67;;;5.50;41.30;;;;;;5074654;28;20532;-86
2022/03/10 02:58:46;;;;;;;16.10;8.20;;;5.50;41.60;;;;;;5090839;28;20520;-86
2022/03/10 03:01:13;;;;;;;19.47;8.80;;;5.50;41.30;;;;;;5091763;28;20468;-86
2022/03/10 03:03:40;;;;;;;15.13;8.77;;;5.50;41.10;;;;;;5089918;28;21018;-86
2022/03/10 03:06:07;;;;;;;12.10;7.90;;;5.50;41.00;;;;;;5087370;28;20794;-86
2022/03/10 03:08:35;;;;;;;15.10;8.47;;;5.50;40.90;;;;;;5087250;28;20524;-87
2022/03/10 03:11:02;;;;;;;11.30;7.50;;;5.50;40.90;;;;;;5070972;28;20504;-86
2022/03/10 03:13:29;;;;;;;17.67;9.37;;;5.50;41.10;;;;;;5089753;28;20454;-86
2022/03/10 03:15:58;;;;;;;16.77;7.83;;;5.40;41.40;;;;;;5086368;28;20452;-86
2022/03/10 03:18:25;;;;;;;14.63;7.73;;;5.10;42.10;;;;;;5086840;28;20443;-87
2022/03/10 03:20:52;;;;;;;10.40;8.03;;;5.10;42.60;;;;;;5088579;28;21001;-87
2022/03/10 03:23:19;;;;;;;21.20;9.57;;;5.20;42.70;;;;;;5070711;28;20827;-87
2022/03/10 03:25:45;;;;;;;12.27;7.93;;;4.90;43.20;;;;;;5087878;28;20901;-87
2022/03/10 03:28:12;;;;;;;16.17;8.73;;;4.80;44.10;;;;;;5088752;27;20481;-87
2022/03/10 03:30:39;;;;;;;14.47;8.87;;;4.90;43.50;;;;;;5088687;28;20460;-87
2022/03/10 03:33:08;;;;;;;10.90;8.17;;;5.00;43.20;;;;;;5054789;28;20447;-85
2022/03/10 03:35:34;;;;;;;11.47;8.33;;;5.00;42.60;;;;;;5079375;28;20452;-87
2022/03/10 03:38:01;;;;;;;11.87;7.97;;;5.10;42.30;;;;;;5087284;28;20458;-86
2022/03/10 03:40:29;;;;;;;13.77;7.50;;;5.10;41.90;;;;;;5086587;28;20443;-88
2022/03/10 03:42:55;;;;;;;15.80;9.57;;;5.20;41.90;;;;;;5084480;28;20448;-87
2022/03/10 03:45:22;;;;;;;15.93;9.07;;;5.10;41.70;;;;;;5086910;28;20451;-87
2022/03/10 03:47:49;;;;;;;11.73;7.90;;;5.10;41.70;;;;;;5096201;28;20590;-87
2022/03/10 03:50:18;;;;;;;22.80;9.73;;;5.10;41.90;;;;;;5092352;28;20452;-86
2022/03/10 03:52:45;;;;;;;15.60;8.10;;;5.10;41.90;;;;;;5089288;28;20487;-86
2022/03/10 03:55:12;;;;;;;19.30;8.13;;;5.10;41.80;;;;;;5056418;28;20456;-88
2022/03/10 03:57:40;;;;;;;16.17;8.57;;;5.10;41.80;;;;;;5098264;28;20482;-87
2022/03/10 04:00:10;;;;;;;12.00;7.63;;;5.10;41.70;;;;;;5082720;28;20464;-87
2022/03/10 04:02:38;;;;;;;14.30;9.83;;;5.10;41.70;;;;;;5087951;28;20486;-88
2022/03/10 04:05:06;;;;;;;14.07;8.27;;;5.10;41.70;;;;;;5087693;28;20466;-87
2022/03/10 04:07:35;;;;;;;16.13;8.70;;;5.10;41.60;;;;;;5088384;28;20899;-87
2022/03/10 04:10:01;;;;;;;10.87;7.37;;;5.00;41.70;;;;;;5088952;28;20463;-88
2022/03/10 04:12:28;;;;;;;14.50;8.50;;;5.00;41.60;;;;;;5077330;28;20481;-88
2022/03/10 04:14:55;;;;;;;12.30;7.00;;;5.00;41.70;;;;;;5073295;28;20466;-88
2022/03/10 04:17:22;;;;;;;13.47;7.83;;;4.90;41.80;;;;;;5085656;28;20552;-87
2022/03/10 04:19:50;;;;;;;14.97;7.80;;;4.90;41.80;;;;;;5087145;28;20456;-87
2022/03/10 04:22:17;;;;;;;15.80;7.07;;;4.90;41.90;;;;;;5091359;28;21042;-87
2022/03/10 04:24:45;;;;;;;16.50;8.10;;;4.90;41.90;;;;;;5090141;28;20462;-85
2022/03/10 04:27:12;;;;;;;10.97;6.60;;;4.90;41.70;;;;;;5087048;28;20472;-87
2022/03/10 04:29:39;;;;;;;12.40;7.60;;;4.80;41.70;;;;;;5089270;28;20658;-88
2022/03/10 04:32:07;;;;;;;10.10;7.13;;;4.80;41.70;;;;;;5085713;28;20482;-88
2022/03/10 04:34:34;;;;;;;12.87;7.87;;;4.80;41.50;;;;;;5090231;28;20462;-88
2022/03/10 04:37:01;;;;;;;10.90;7.90;;;4.80;41.50;;;;;;5091499;28;20462;-88
2022/03/10 04:39:28;;;;;;;16.90;10.33;;;4.70;41.70;;;;;;5095098;28;20455;-88
2022/03/10 04:41:56;;;;;;;13.50;8.07;;;4.70;42.20;;;;;;5071795;28;20483;-88
2022/03/10 04:44:23;;;;;;;17.83;8.97;;;4.70;42.50;;;;;;5089767;28;20467;-88
2022/03/10 04:46:50;;;;;;;14.93;8.57;;;4.60;43.10;;;;;;5085233;28;20478;-89
2022/03/10 04:49:17;;;;;;;17.27;8.53;;;4.60;43.10;;;;;;5073393;28;20455;-88
2022/03/10 04:51:44;;;;;;;17.40;9.77;;;4.60;42.80;;;;;;5092066;28;20479;-86
2022/03/10 04:54:11;;;;;;;15.57;8.40;;;4.60;43.00;;;;;;5087063;28;20471;-89
2022/03/10 04:56:40;;;;;;;12.83;9.27;;;4.60;43.10;;;;;;5083837;28;20439;-88
2022/03/10 04:59:09;;;;;;;12.57;9.80;;;4.60;43.10;;;;;;5061751;28;20480;-89
2022/03/10 05:01:36;;;;;;;12.17;8.63;;;4.70;42.90;;;;;;5094614;28;20539;-89
2022/03/10 05:04:03;;;;;;;18.73;9.90;;;4.60;42.50;;;;;;5087239;28;20498;-88
2022/03/10 05:06:29;;;;;;;22.10;11.63;;;4.60;42.40;;;;;;5084616;28;20456;-89
2022/03/10 05:08:56;;;;;;;19.17;11.27;;;4.60;42.60;;;;;;5086479;28;20463;-89
2022/03/10 05:11:23;;;;;;;19.30;10.83;;;4.50;42.50;;;;;;5088477;28;20479;-89
2022/03/10 05:13:50;;;;;;;21.77;11.50;;;4.40;43.10;;;;;;5088424;28;20511;-91
2022/03/10 05:16:19;;;;;;;23.50;13.97;;;4.40;44.20;;;;;;5087960;28;20469;-89
2022/03/10 05:18:46;;;;;;;23.93;10.97;;;4.40;43.30;;;;;;5069463;28;20450;-89
2022/03/10 05:21:13;;;;;;;29.23;12.83;;;4.40;43.00;;;;;;5074322;28;20531;-89
2022/03/10 05:23:39;;;;;;;25.90;11.87;;;4.40;42.90;;;;;;5072041;28;20460;-88
2022/03/10 05:26:06;;;;;;;23.37;10.60;;;4.40;42.80;;;;;;5084748;28;20462;-90
2022/03/10 05:28:33;;;;;;;24.10;10.10;;;4.40;42.60;;;;;;5089966;28;20471;-90
2022/03/10 05:31:00;;;;;;;19.00;10.53;;;4.40;42.50;;;;;;5090507;28;20562;-87
2022/03/10 05:33:29;;;;;;;22.50;10.70;;;4.40;42.40;;;;;;5063319;28;20455;-90
2022/03/10 05:35:56;;;;;;;18.40;11.00;;;4.30;42.40;;;;;;5090815;28;20464;-89
2022/03/10 05:38:23;;;;;;;22.67;10.87;;;4.40;42.50;;;;;;5059780;28;20480;-89
2022/03/10 05:40:49;;;;;;;20.30;11.33;;;4.30;42.50;;;;;;5074970;28;20506;-90
2022/03/10 05:43:17;;;;;;;22.70;11.10;;;4.30;42.60;;;;;;5094078;28;20962;-87
2022/03/10 05:45:44;;;;;;;22.37;11.30;;;4.30;42.50;;;;;;5095728;28;20447;-87
2022/03/10 05:48:11;;;;;;;22.73;10.73;;;4.30;42.60;;;;;;5090376;28;20520;-88
2022/03/10 05:50:39;;;;;;;16.73;9.70;;;4.30;42.80;;;;;;5068805;28;20451;-88
2022/03/10 05:53:07;;;;;;;17.83;9.43;;;4.30;43.30;;;;;;5092241;28;20449;-89
2022/03/10 05:55:34;;;;;;;23.00;11.00;;;4.20;43.80;;;;;;5068854;28;20511;-89
2022/03/10 05:58:01;;;;;;;21.60;10.97;;;4.10;44.30;;;;;;5092826;28;20455;-89
2022/03/10 06:00:28;;;;;;;16.70;11.30;;;4.10;44.00;;;;;;5094331;28;20458;-89
2022/03/10 06:02:55;;;;;;;15.70;10.87;;;4.10;44.00;;;;;;5080205;28;20448;-89
2022/03/10 06:05:22;;;;;;;18.17;9.80;;;4.00;44.30;;;;;;5088546;28;20459;-89
2022/03/10 06:07:50;;;;;;;16.07;10.60;;;4.00;44.20;;;;;;5086697;28;20471;-89
2022/03/10 06:10:17;;;;;;;19.57;10.47;;;4.00;44.20;;;;;;5085212;28;20471;-89
2022/03/10 06:12:45;;;;;;;17.47;9.40;;;4.10;44.20;;;;;;5088266;28;20590;-88
2022/03/10 06:15:12;;;;;;;21.87;9.20;;;3.80;44.20;;;;;;5089559;28;20463;-89
2022/03/10 06:17:39;;;;;;;18.33;9.63;;;3.30;45.50;;;;;;5070622;28;21755;-90
2022/03/10 06:20:07;;;;;;;17.80;9.83;;;3.50;45.60;;;;;;5087507;28;20451;-89
2022/03/10 06:22:35;;;;;;;17.63;9.73;;;3.70;44.90;;;;;;5072375;28;20475;-89
2022/03/10 06:25:05;;;;;;;21.40;11.50;;;3.80;44.50;;;;;;5086716;28;20442;-89
2022/03/10 06:27:32;;;;;;;18.00;10.10;;;3.90;44.20;;;;;;5097487;28;20485;-89
2022/03/10 06:29:59;;;;;;;23.90;13.00;;;4.00;44.10;;;;;;5067015;28;20460;-89
2022/03/10 06:32:26;;;;;;;29.53;14.00;;;4.00;44.00;;;;;;5093035;28;20471;-90
2022/03/10 06:34:56;;;;;;;34.27;14.80;;;4.00;43.90;;;;;;5093013;28;20545;-90
2022/03/10 06:37:23;;;;;;;30.17;14.30;;;4.00;43.90;;;;;;5097853;28;20494;-89
2022/03/10 06:39:50;;;;;;;31.13;11.23;;;4.10;43.90;;;;;;5093814;28;20554;-88
2022/03/10 06:42:19;;;;;;;20.27;11.83;;;4.10;44.00;;;;;;5090304;28;20919;-89
2022/03/10 06:44:46;;;;;;;20.33;11.20;;;4.10;44.00;;;;;;5094645;28;20462;-89
2022/03/10 06:47:13;;;;;;;19.65;11.15;;;4.10;44.00;;;;;;5094329;28;20506;-90
2022/03/10 06:49:40;;;;;;;20.47;9.60;;;4.10;44.00;;;;;;5089877;28;20942;-90
2022/03/10 06:52:09;;;;;;;22.87;11.30;;;4.20;44.70;;;;;;5055328;28;20471;-91
2022/03/10 06:54:37;;;;;;;22.83;10.60;;;4.20;44.10;;;;;;5091026;28;20539;-90
2022/03/10 06:57:04;;;;;;;16.07;9.93;;;4.20;44.30;;;;;;5073481;28;20458;-90
2022/03/10 06:59:33;;;;;;;19.00;11.17;;;4.20;44.30;;;;;;5084218;28;20469;-90
2022/03/10 07:01:59;;;;;;;19.00;11.10;;;4.20;44.40;;;;;;5093331;28;20479;-91
2022/03/10 07:04:27;;;;;;;18.37;9.23;;;4.20;44.40;;;;;;5073415;28;20474;-90
2022/03/10 07:06:54;;;;;;;18.77;12.00;;;4.20;44.40;;;;;;5088599;28;20448;-89
2022/03/10 07:09:21;;;;;;;16.97;11.10;;;4.20;44.20;;;;;;5073465;28;20472;-89
2022/03/10 07:11:48;;;;;;;25.23;10.77;;;4.20;44.70;;;;;;5089092;28;20536;-89
2022/03/10 07:14:15;;;;;;;20.17;11.20;;;4.20;45.20;;;;;;5088559;28;20454;-89
2022/03/10 07:16:44;;;;;;;24.80;10.40;;;4.20;45.10;;;;;;5088636;28;20545;-88
2022/03/10 07:19:12;;;;;;;26.80;12.80;;;4.20;45.00;;;;;;5090291;28;21025;-89
2022/03/10 07:21:40;;;;;;;38.97;16.70;;;4.20;45.00;;;;;;5086557;28;20970;-89
2022/03/10 07:24:08;;;;;;;40.77;13.77;;;4.20;45.20;;;;;;5087288;28;20458;-89
2022/03/10 07:26:35;;;;;;;35.20;14.20;;;4.30;45.20;;;;;;5076700;28;20455;-89
2022/03/10 07:29:01;;;;;;;28.37;13.20;;;4.30;45.20;;;;;;5075464;28;20459;-88
2022/03/10 07:31:29;;;;;;;29.33;12.63;;;4.30;45.50;;;;;;5085919;28;20467;-88
2022/03/10 07:33:58;;;;;;;41.20;19.90;;;4.40;45.30;;;;;;5086919;28;20463;-88
2022/03/10 07:36:25;;;;;;;30.10;17.40;;;4.40;45.30;;;;;;5080422;28;20452;-89
2022/03/10 07:38:52;;;;;;;32.90;15.50;;;4.40;45.10;;;;;;5075361;28;20809;-88
2022/03/10 07:41:19;;;;;;;27.83;13.17;;;4.40;45.00;;;;;;5089714;27;20483;-89
2022/03/10 07:43:46;;;;;;;24.23;13.40;;;4.50;44.90;;;;;;5087550;28;20458;-89
2022/03/10 07:46:13;;;;;;;25.40;12.20;;;4.50;44.70;;;;;;5079050;28;20462;-91
2022/03/10 07:48:40;;;;;;;21.40;10.93;;;4.60;44.80;;;;;;5076050;28;20839;-89
2022/03/10 07:51:09;;;;;;;15.50;9.43;;;4.60;44.80;;;;;;5085379;28;20495;-91
2022/03/10 07:53:36;;;;;;;16.17;9.53;;;4.60;44.70;;;;;;5072670;28;20839;-89
2022/03/10 07:56:04;;;;;;;15.30;8.63;;;4.60;44.60;;;;;;5088832;28;20564;-88
2022/03/10 07:58:31;;;;;;;18.17;10.13;;;4.60;44.40;;;;;;5088510;28;20796;-88
2022/03/10 08:00:58;;;;;;;14.27;9.10;;;4.60;44.40;;;;;;5095875;28;20974;-90
2022/03/10 08:03:26;;;;;;;15.27;10.10;;;4.70;44.30;;;;;;5092834;28;20495;-88
2022/03/10 08:05:53;;;;;;;15.70;10.73;;;4.70;44.30;;;;;;5091745;28;20462;-88
2022/03/10 08:08:21;;;;;;;17.57;9.10;;;4.80;44.10;;;;;;5089901;28;20474;-88
2022/03/10 08:10:48;;;;;;;30.67;9.87;;;4.80;44.00;;;;;;5086566;28;20480;-88
2022/03/10 08:13:15;;;;;;;19.23;9.90;;;4.80;43.90;;;;;;5089337;28;20462;-87
2022/03/10 08:15:43;;;;;;;13.83;9.70;;;4.80;44.00;;;;;;5072849;28;20448;-88
2022/03/10 08:18:11;;;;;;;19.20;9.50;;;4.80;44.00;;;;;;5091095;28;20443;-87
2022/03/10 08:20:39;;;;;;;20.83;9.33;;;4.80;44.00;;;;;;5093493;28;20459;-87
2022/03/10 08:23:06;;;;;;;12.83;8.60;;;4.90;44.20;;;;;;5090708;28;20447;-87
2022/03/10 08:25:36;;;;;;;13.47;9.00;;;4.90;44.30;;;;;;5092964;28;20485;-88
2022/03/10 08:28:04;;;;;;;17.53;10.40;;;5.00;44.50;;;;;;5097704;28;22152;-87
2022/03/10 08:30:31;;;;;;;24.93;10.57;;;5.00;44.70;;;;;;5090794;28;20972;-86
2022/03/10 08:32:58;;;;;;;21.47;10.40;;;5.10;44.50;;;;;;5092306;28;20454;-86
2022/03/10 08:35:25;;;;;;;21.77;11.37;;;5.10;44.10;;;;;;5077026;28;20455;-87
2022/03/10 08:37:52;;;;;;;26.07;10.43;;;5.10;44.10;;;;;;5090003;28;20455;-87
2022/03/10 08:40:19;;;;;;;20.53;9.90;;;5.10;44.20;;;;;;5094078;28;20985;-86
2022/03/10 08:42:49;;;;;;;21.30;11.23;;;5.20;44.30;;;;;;5073387;28;20465;-88
2022/03/10 08:45:16;;;;;;;19.37;11.03;;;5.30;44.80;;;;;;5091177;28;20463;-86
2022/03/10 08:47:43;;;;;;;20.20;10.93;;;5.30;44.30;;;;;;5088335;28;20457;-87
2022/03/10 08:50:11;;;;;;;32.17;12.80;;;5.50;44.80;;;;;;5098446;28;20472;-89
2022/03/10 08:52:39;;;;;;;21.80;10.30;;;5.60;44.80;;;;;;5093503;28;20531;-89
2022/03/10 08:55:07;;;;;;;18.23;9.93;;;5.70;44.70;;;;;;5077864;28;21112;-87
2022/03/10 08:57:36;;;;;;;16.30;10.93;;;5.70;44.70;;;;;;5083712;28;20451;-87
2022/03/10 09:00:05;;;;;;;16.23;10.30;;;5.80;44.90;;;;;;5080701;28;20454;-87
2022/03/10 09:02:32;;;;;;;17.20;9.47;;;5.90;44.80;;;;;;5087169;28;20483;-87
2022/03/10 09:04:59;;;;;;;19.37;8.83;;;5.80;44.80;;;;;;5067660;28;20452;-87
2022/03/10 09:07:26;;;;;;;17.30;10.97;;;5.80;45.30;;;;;;5078708;28;20456;-87
2022/03/10 09:09:53;;;;;;;21.40;10.30;;;6.00;45.70;;;;;;5091532;28;20468;-87
2022/03/10 09:12:20;;;;;;;23.10;10.80;;;6.00;45.50;;;;;;5090857;28;20857;-88
2022/03/10 09:14:47;;;;;;;17.23;10.00;;;6.00;45.80;;;;;;5086806;28;21881;-87
2022/03/10 09:17:16;;;;;;;12.40;9.67;;;6.10;45.90;;;;;;5091840;28;20951;-87
2022/03/10 09:19:42;;;;;;;17.33;10.20;;;6.10;46.40;;;;;;5088290;28;20453;-88
2022/03/10 09:22:09;;;;;;;20.00;9.50;;;6.30;46.20;;;;;;5097350;28;20490;-87
2022/03/10 09:24:36;;;;;;;16.60;9.40;;;6.60;45.70;;;;;;5077515;28;21140;-87
2022/03/10 09:27:05;;;;;;;20.53;10.10;;;6.90;45.60;;;;;;5076547;28;21939;-87
2022/03/10 09:29:32;;;;;;;17.80;11.27;;;7.20;45.10;;;;;;5091705;28;20471;-87
2022/03/10 09:31:59;;;;;;;20.70;9.90;;;7.50;44.70;;;;;;5087026;28;20475;-87
2022/03/10 09:34:27;;;;;;;17.20;10.07;;;7.70;44.20;;;;;;5091739;28;20466;-87
2022/03/10 09:36:54;;;;;;;20.67;13.33;;;8.00;43.70;;;;;;5090396;28;21202;-88
2022/03/10 09:39:21;;;;;;;18.17;10.87;;;8.20;43.30;;;;;;5091201;28;20548;-88
2022/03/10 09:41:49;;;;;;;17.80;11.47;;;8.30;42.90;;;;;;5076979;28;20494;-87
2022/03/10 09:44:18;;;;;;;20.07;10.80;;;8.50;42.80;;;;;;5090659;28;20980;-87
2022/03/10 09:46:47;;;;;;;17.33;9.73;;;8.60;42.50;;;;;;5088792;28;20456;-87
2022/03/10 09:49:14;;;;;;;15.73;8.40;;;8.80;42.30;;;;;;5090236;27;20471;-87
2022/03/10 09:51:43;;;;;;;25.43;11.80;;;9.10;41.80;;;;;;5088269;28;20475;-88
2022/03/10 09:54:09;;;;;;;17.60;11.30;;;9.30;41.40;;;;;;5091799;28;20455;-88
2022/03/10 09:56:38;;;;;;;20.07;11.20;;;9.50;40.90;;;;;;5090309;28;20466;-87
2022/03/10 09:59:07;;;;;;;16.00;10.03;;;9.80;41.00;;;;;;5078794;28;20448;-86
2022/03/10 10:01:34;;;;;;;22.70;11.17;;;10.00;39.00;;;;;;5092615;28;20479;-88
2022/03/10 10:04:01;;;;;;;20.73;9.80;;;10.20;38.70;;;;;;5107840;27;20511;-88
2022/03/10 10:06:28;;;;;;;171.97;54.77;;;10.30;38.10;;;;;;5082755;28;20466;-86
2022/03/10 10:08:57;;;;;;;36.43;15.33;;;10.50;38.10;;;;;;5093521;28;20472;-85
2022/03/10 10:11:32;;;;;;;40.87;16.17;;;10.80;38.20;;;;;;5066076;28;20474;-86
2022/03/10 10:13:59;;;;;;;17.17;10.73;;;11.00;37.70;;;;;;5089931;28;20573;-86
2022/03/10 10:16:26;;;;;;;18.30;10.50;;;11.00;35.60;;;;;;5092697;28;20463;-86
2022/03/10 10:18:57;;;;;;;19.37;10.73;;;11.10;35.90;;;;;;5088914;28;20448;-86
2022/03/10 10:21:25;;;;;;;15.43;9.20;;;11.30;36.50;;;;;;5090530;28;20554;-87
2022/03/10 10:23:56;;;;;;;16.93;10.60;;;11.50;35.50;;;;;;5079409;28;20440;-87
2022/03/10 10:26:28;;;;;;;23.33;9.77;;;11.70;35.00;;;;;;5094248;28;21012;-87
2022/03/10 10:28:55;;;;;;;19.80;9.87;;;11.80;34.50;;;;;;5075793;28;20486;-87
2022/03/10 10:31:24;;;;;;;19.43;9.90;;;11.80;33.50;;;;;;5090624;28;20551;-86
2022/03/10 10:34:01;;;;;;;18.87;9.50;;;11.90;33.30;;;;;;5091403;28;20828;-87
2022/03/10 10:36:29;;;;;;;21.93;10.13;;;12.20;33.60;;;;;;5089178;28;20497;-87
2022/03/10 10:39:07;;;;;;;17.70;9.80;;;12.70;33.60;;;;;;5087627;28;20459;-86
2022/03/10 10:41:34;;;;;;;14.93;8.67;;;13.10;33.00;;;;;;5069761;28;20503;-87
2022/03/10 10:44:03;;;;;;;12.60;9.20;;;13.20;31.70;;;;;;5059889;28;20443;-87
2022/03/10 10:46:33;;;;;;;14.30;9.77;;;13.40;31.70;;;;;;5088915;28;20538;-86
2022/03/10 10:49:03;;;;;;;13.80;9.77;;;13.50;31.40;;;;;;5088565;27;20456;-85
2022/03/10 10:51:36;;;;;;;21.23;10.33;;;13.80;31.40;;;;;;5091920;28;21004;-88
2022/03/10 10:54:07;;;;;;;15.93;9.70;;;13.90;30.40;;;;;;5090498;28;20451;-85
2022/03/10 10:56:34;;;;;;;15.00;9.90;;;14.00;30.00;;;;;;5089788;28;20459;-87
2022/03/10 10:59:03;;;;;;;14.80;9.10;;;14.10;30.50;;;;;;5091421;28;20530;-86
2022/03/10 11:01:35;;;;;;;19.60;10.57;;;14.50;30.50;;;;;;5087991;28;20471;-87
2022/03/10 11:04:04;;;;;;;14.37;9.97;;;14.60;30.10;;;;;;5089977;28;20470;-87
2022/03/10 11:06:32;;;;;;;16.50;9.83;;;14.80;29.90;;;;;;5087787;28;20453;-87
2022/03/10 11:08:59;;;;;;;17.17;9.67;;;14.80;29.70;;;;;;5089820;28;20482;-86
2022/03/10 11:11:28;;;;;;;13.07;9.03;;;15.00;29.90;;;;;;5075841;28;20470;-86
2022/03/10 11:13:55;;;;;;;15.13;9.83;;;15.10;29.60;;;;;;5073928;28;20455;-85
2022/03/10 11:16:22;;;;;;;14.93;9.23;;;15.20;29.40;;;;;;5061992;28;20461;-86
2022/03/10 11:18:51;;;;;;;15.87;10.13;;;15.50;29.60;;;;;;5095773;28;21016;-85
2022/03/10 11:21:42;;;;;;;14.33;9.10;;;15.70;29.20;;;;;;5091878;28;20862;-86
2022/03/10 11:24:33;;;;;;;13.50;8.03;;;15.70;28.40;;;;;;5103502;27;20448;-87
2022/03/10 11:27:09;;;;;;;17.57;9.53;;;15.90;28.90;;;;;;5088750;28;20484;-84
2022/03/10 11:29:37;;;;;;;16.63;9.63;;;15.90;28.40;;;;;;5090513;28;20474;-86
2022/03/10 11:32:06;;;;;;;15.23;9.47;;;15.80;28.70;;;;;;5072579;28;20483;-86
2022/03/10 11:34:47;;;;;;;15.53;8.97;;;15.80;28.30;;;;;;5074089;28;20446;-85
2022/03/10 11:37:34;;;;;;;16.23;9.37;;;15.90;28.30;;;;;;5089317;28;20864;-86
2022/03/10 11:40:01;;;;;;;17.37;9.70;;;16.30;28.30;;;;;;5074481;28;20974;-86
2022/03/10 11:42:31;;;;;;;13.33;9.20;;;16.60;28.10;;;;;;5087157;28;20475;-87
2022/03/10 11:45:09;;;;;;;13.87;8.50;;;16.70;27.40;;;;;;5096000;28;20482;-87
2022/03/10 11:47:37;;;;;;;15.80;9.30;;;16.90;26.50;;;;;;5094983;28;20457;-87
2022/03/10 11:50:27;;;;;;;20.33;12.37;;;17.20;27.00;;;;;;5080972;28;20542;-86
2022/03/10 11:52:58;;;;;;;15.90;8.20;;;17.20;26.60;;;;;;5088035;28;20455;-86
2022/03/10 11:55:39;;;;;;;13.27;8.07;;;17.30;26.50;;;;;;5092220;28;20454;-87
2022/03/10 11:58:10;;;;;;;14.13;8.97;;;17.40;26.40;;;;;;5090163;28;20454;-88
2022/03/10 12:00:48;;;;;;;15.00;8.23;;;17.40;25.80;;;;;;5088700;28;20458;-87
2022/03/10 12:03:30;;;;;;;13.83;8.83;;;17.50;25.70;;;;;;5093723;28;20460;-87
2022/03/10 12:05:59;;;;;;;28.27;16.03;;;17.80;25.60;;;;;;5087745;28;20453;-87
2022/03/10 12:08:29;;;;;;;13.20;9.83;;;18.00;24.70;;;;;;5077331;28;20970;-86
2022/03/10 12:10:57;;;;;;;11.67;8.30;;;18.00;25.20;;;;;;5081064;28;20565;-87
2022/03/10 12:13:28;;;;;;;12.57;7.73;;;18.10;25.10;;;;;;5093413;28;20446;-88
2022/03/10 12:15:56;;;;;;;12.10;7.80;;;18.30;24.70;;;;;;5086371;28;20448;-87
2022/03/10 12:18:25;;;;;;;12.80;8.47;;;18.40;24.60;;;;;;5073236;28;20451;-87
2022/03/10 12:20:57;;;;;;;14.90;8.80;;;18.60;24.60;;;;;;5054036;28;20479;-86
2022/03/10 12:23:26;;;;;;;11.70;7.90;;;19.00;24.00;;;;;;5086612;28;20950;-87
2022/03/10 12:25:57;;;;;;;12.17;7.80;;;19.30;24.50;;;;;;5085961;28;20451;-87
2022/03/10 12:28:34;;;;;;;11.10;8.47;;;19.40;23.20;;;;;;5071390;28;20485;-87
2022/03/10 12:31:10;;;;;;;12.50;7.60;;;19.60;24.20;;;;;;5071199;28;20475;-86
2022/03/10 12:33:45;;;;;;;10.27;7.00;;;19.30;23.30;;;;;;5085667;28;20458;-87
2022/03/10 12:36:15;;;;;;;12.87;7.60;;;19.10;23.40;;;;;;5091396;28;20516;-87
2022/03/10 12:38:45;;;;;;;12.40;7.07;;;18.90;23.10;;;;;;5090680;28;20507;-87
2022/03/10 12:41:14;;;;;;;11.20;7.80;;;18.60;23.50;;;;;;5086948;28;20494;-85
2022/03/10 12:43:43;;;;;;;15.13;7.50;;;18.60;23.90;;;;;;5089365;28;20456;-86
2022/03/10 12:46:11;;;;;;;13.40;7.57;;;18.80;24.90;;;;;;5090010;28;20955;-86
2022/03/10 12:48:47;;;;;;;14.00;7.50;;;19.30;23.70;;;;;;5091685;28;20455;-86
2022/03/10 12:51:22;;;;;;;10.97;7.57;;;19.40;23.60;;;;;;5088501;28;20900;-87
2022/03/10 12:53:49;;;;;;;9.83;6.50;;;19.20;23.30;;;;;;5090919;28;20485;-87